Time;durP1;ratioP1;P1;durP2;ratioP2;P2;SDS_P1;SDS_P2;PMS_P1;PMS_P2;Temp;Humidity;BMP_temperature;BMP_pressure;BME280_temperature;BME280_humidity;BME280_pressure;Samples;Min_cycle;Max_cycle;Signal;HPM_P1;HPM_P2
2021/04/17 00:01:49;;;;;;;;;;;23.60;45.30;;;;;;1548783;75;747;-64
2021/04/17 00:03:51;;;;;;;;;;;23.60;45.20;;;;;;1554848;75;767;-64
2021/04/17 00:05:53;;;;;;;;;;;23.60;45.10;;;;;;1551423;75;717;-64
2021/04/17 00:07:55;;;;;;;;;;;23.60;45.20;;;;;;1551218;75;1169;-64
2021/04/17 00:09:57;;;;;;;;;;;23.60;44.90;;;;;;1548352;75;1934;-64
2021/04/17 00:11:59;;;;;;;;;;;23.50;45.30;;;;;;1555441;75;753;-64
2021/04/17 00:14:02;;;;;;;;;;;23.60;45.20;;;;;;1558605;75;815;-64
2021/04/17 00:16:04;;;;;;;;;;;23.60;45.20;;;;;;1546076;75;725;-64
2021/04/17 00:18:06;;;;;;;;;;;23.60;45.20;;;;;;1554547;75;1162;-65
2021/04/17 00:20:08;;;;;;;;;;;23.60;45.20;;;;;;1553353;75;849;-63
2021/04/17 00:22:10;;;;;;;;;;;23.60;45.20;;;;;;1560233;75;563;-64
2021/04/17 00:24:12;;;;;;;;;;;23.60;45.20;;;;;;1553752;75;731;-64
2021/04/17 00:26:14;;;;;;;;;;;23.60;45.20;;;;;;1561067;75;708;-65
2021/04/17 00:28:15;;;;;;;;;;;23.60;45.00;;;;;;1554120;75;1181;-66
2021/04/17 00:30:18;;;;;;;;;;;23.60;45.20;;;;;;1543595;75;1928;-64
2021/04/17 00:32:19;;;;;;;;;;;23.60;45.10;;;;;;1556932;75;792;-64
2021/04/17 00:34:21;;;;;;;;;;;23.50;45.00;;;;;;1555437;75;691;-64
2021/04/17 00:36:23;;;;;;;;;;;23.50;45.00;;;;;;1556912;75;650;-64
2021/04/17 00:38:25;;;;;;;;;;;23.60;44.90;;;;;;1556226;75;1177;-64
2021/04/17 00:40:27;;;;;;;;;;;23.50;45.10;;;;;;1558530;75;732;-65
2021/04/17 00:42:29;;;;;;;;;;;23.50;45.10;;;;;;1550080;75;733;-65
2021/04/17 00:44:33;;;;;;;;;;;23.50;45.00;;;;;;1554807;75;812;-65
2021/04/17 00:46:34;;;;;;;;;;;23.60;45.10;;;;;;1550187;75;1927;-64
2021/04/17 00:48:36;;;;;;;;;;;23.60;45.10;;;;;;1551195;75;1149;-64
2021/04/17 00:50:38;;;;;;;;;;;23.60;45.00;;;;;;1548522;75;1966;-63
2021/04/17 00:52:40;;;;;;;;;;;23.60;45.00;;;;;;1549399;75;773;-65
2021/04/17 00:54:42;;;;;;;;;;;23.50;45.20;;;;;;1543734;75;736;-65
2021/04/17 00:56:44;;;;;;;;;;;23.50;45.50;;;;;;1543758;75;731;-65
2021/04/17 00:58:46;;;;;;;;;;;23.50;45.50;;;;;;1550806;75;1106;-64
2021/04/17 01:00:48;;;;;;;;;;;23.50;45.50;;;;;;1557955;75;807;-67
2021/04/17 01:02:51;;;;;;;;;;;23.60;45.40;;;;;;1548824;75;847;-66
2021/04/17 01:04:53;;;;;;;;;;;23.60;45.40;;;;;;1554770;75;799;-65
2021/04/17 01:07:06;;;;;;;;;;;23.60;45.30;;;;;;1559972;75;829;-63
2021/04/17 01:09:12;;;;;;;;;;;23.70;45.40;;;;;;1551967;75;729;-64
2021/04/17 01:11:16;;;;;;;;;;;23.60;45.20;;;;;;1549402;75;1955;-65
2021/04/17 01:13:18;;;;;;;;;;;23.70;45.30;;;;;;1549135;74;1860;-63
2021/04/17 01:15:21;;;;;;;;;;;23.60;45.10;;;;;;1552816;75;873;-63
2021/04/17 01:17:22;;;;;;;;;;;23.70;45.20;;;;;;1554806;75;1136;-65
2021/04/17 01:19:38;;;;;;;;;;;23.70;45.30;;;;;;1559264;75;805;-63
2021/04/17 01:21:40;;;;;;;;;;;23.70;45.20;;;;;;1523844;75;1121;-63
2021/04/17 01:23:45;;;;;;;;;;;23.80;45.20;;;;;;1542414;76;648;-63
2021/04/17 01:25:57;;;;;;;;;;;23.80;45.20;;;;;;1552991;75;1383;-64
2021/04/17 01:27:59;;;;;;;;;;;23.70;45.10;;;;;;1541572;74;1141;-63
2021/04/17 01:30:01;;;;;;;;;;;23.80;45.10;;;;;;1550285;75;749;-64
2021/04/17 01:32:04;;;;;;;;;;;23.70;45.00;;;;;;1551936;75;1927;-64
2021/04/17 01:34:06;;;;;;;;;;;23.70;45.00;;;;;;1544260;75;863;-63
2021/04/17 01:36:08;;;;;;;;;;;23.70;45.20;;;;;;1547212;75;797;-64
2021/04/17 01:38:17;;;;;;;;;;;23.70;45.10;;;;;;1548437;75;1201;-64
2021/04/17 01:40:20;;;;;;;;;;;23.60;45.00;;;;;;1552477;75;710;-63
2021/04/17 01:42:22;;;;;;;;;;;23.60;45.10;;;;;;1555198;75;747;-64
2021/04/17 01:44:25;;;;;;;;;;;23.60;45.10;;;;;;1545904;75;804;-66
2021/04/17 01:46:28;;;;;;;;;;;23.70;45.00;;;;;;1552123;75;1916;-63
2021/04/17 01:48:30;;;;;;;;;;;23.70;44.80;;;;;;1550337;75;1205;-63
2021/04/17 01:50:32;;;;;;;;;;;23.70;44.90;;;;;;1552837;75;1928;-61
2021/04/17 01:52:34;;;;;;;;;;;23.70;45.10;;;;;;1553924;75;1081;-63
2021/04/17 01:54:40;;;;;;;;;;;23.70;45.00;;;;;;1557448;75;734;-64
2021/04/17 01:56:40;;;;;;;;;;;23.70;45.00;;;;;;1549659;75;1574;-63
2021/04/17 01:58:42;;;;;;;;;;;23.60;44.80;;;;;;1559718;75;1125;-64
2021/04/17 02:00:44;;;;;;;;;;;23.60;44.70;;;;;;1551713;75;798;-63
2021/04/17 02:02:46;;;;;;;;;;;23.60;44.50;;;;;;1553069;75;733;-65
2021/04/17 02:04:48;;;;;;;;;;;23.80;44.80;;;;;;1554008;75;827;-64
2021/04/17 02:06:50;;;;;;;;;;;23.70;44.90;;;;;;1548392;75;686;-66
2021/04/17 02:08:52;;;;;;;;;;;23.70;44.90;;;;;;1550338;75;1087;-65
2021/04/17 02:10:53;;;;;;;;;;;23.70;44.80;;;;;;1551019;75;1930;-65
2021/04/17 02:12:55;;;;;;;;;;;23.70;44.80;;;;;;1551308;75;763;-64
2021/04/17 02:14:57;;;;;;;;;;;23.70;44.80;;;;;;1550378;75;745;-64
2021/04/17 02:17:03;;;;;;;;;;;23.70;44.80;;;;;;1559076;75;1138;-64
2021/04/17 02:19:07;;;;;;;;;;;23.70;44.60;;;;;;1553119;75;661;-64
2021/04/17 02:21:09;;;;;;;;;;;23.70;44.70;;;;;;1549352;75;803;-64
2021/04/17 02:23:11;;;;;;;;;;;23.70;44.90;;;;;;1558085;75;787;-63
2021/04/17 02:25:13;;;;;;;;;;;23.70;45.00;;;;;;1547666;75;862;-65
2021/04/17 02:27:15;;;;;;;;;;;23.70;44.80;;;;;;1549937;75;1176;-67
2021/04/17 02:29:17;;;;;;;;;;;23.70;44.80;;;;;;1556171;75;844;-62
2021/04/17 02:31:19;;;;;;;;;;;23.60;44.70;;;;;;1554099;75;1948;-67
2021/04/17 02:33:21;;;;;;;;;;;23.70;44.90;;;;;;1561031;75;785;-66
2021/04/17 02:35:23;;;;;;;;;;;23.60;45.00;;;;;;1551392;75;774;-66
2021/04/17 02:37:24;;;;;;;;;;;23.60;45.00;;;;;;1550843;75;1172;-67
2021/04/17 02:39:26;;;;;;;;;;;23.60;45.00;;;;;;1547005;75;749;-64
2021/04/17 02:41:28;;;;;;;;;;;23.60;45.10;;;;;;1559364;75;728;-65
2021/04/17 02:43:30;;;;;;;;;;;23.60;45.20;;;;;;1545760;75;894;-64
2021/04/17 02:45:32;;;;;;;;;;;23.60;45.20;;;;;;1553842;75;768;-64
2021/04/17 02:47:34;;;;;;;;;;;23.60;45.30;;;;;;1556764;75;1134;-65
2021/04/17 02:49:36;;;;;;;;;;;23.50;45.30;;;;;;1554152;75;733;-65
2021/04/17 02:51:38;;;;;;;;;;;23.60;45.30;;;;;;1548025;75;1937;-64
2021/04/17 02:53:39;;;;;;;;;;;23.50;45.40;;;;;;1553405;75;872;-65
2021/04/17 02:55:41;;;;;;;;;;;23.50;45.50;;;;;;1548980;75;734;-65
2021/04/17 02:57:43;;;;;;;;;;;23.50;45.60;;;;;;1549458;75;1155;-65
2021/04/17 02:59:45;;;;;;;;;;;23.50;45.60;;;;;;1552127;75;767;-65
2021/04/17 03:01:47;;;;;;;;;;;23.50;45.70;;;;;;1550762;75;756;-63
2021/04/17 03:03:49;;;;;;;;;;;23.40;45.70;;;;;;1560947;75;923;-65
2021/04/17 03:05:51;;;;;;;;;;;23.50;46.00;;;;;;1548940;75;775;-65
2021/04/17 03:07:53;;;;;;;;;;;23.40;46.00;;;;;;1550910;75;1128;-63
2021/04/17 03:09:54;;;;;;;;;;;23.40;46.00;;;;;;1548608;75;724;-65
2021/04/17 03:11:56;;;;;;;;;;;23.40;46.20;;;;;;1555668;75;1936;-64
2021/04/17 03:13:58;;;;;;;;;;;23.40;46.30;;;;;;1554858;75;783;-65
2021/04/17 03:16:00;;;;;;;;;;;23.30;46.40;;;;;;1546980;75;796;-65
2021/04/17 03:18:02;;;;;;;;;;;23.40;46.30;;;;;;1553423;75;1147;-63
2021/04/17 03:20:05;;;;;;;;;;;23.30;46.50;;;;;;1547715;75;792;-64
2021/04/17 03:22:07;;;;;;;;;;;23.30;46.50;;;;;;1558522;75;835;-64
2021/04/17 03:24:09;;;;;;;;;;;23.40;46.50;;;;;;1548471;75;806;-63
2021/04/17 03:26:11;;;;;;;;;;;23.40;46.40;;;;;;1564937;75;911;-65
2021/04/17 03:28:13;;;;;;;;;;;23.40;46.30;;;;;;1544973;75;1130;-64
2021/04/17 03:30:16;;;;;;;;;;;23.40;46.30;;;;;;1573008;75;856;-64
2021/04/17 03:32:17;;;;;;;;;;;23.40;46.30;;;;;;1566728;75;1947;-64
2021/04/17 03:34:19;;;;;;;;;;;23.40;46.20;;;;;;1566331;75;877;-64
2021/04/17 03:36:21;;;;;;;;;;;23.60;46.20;;;;;;1554375;75;803;-64
2021/04/17 03:38:23;;;;;;;;;;;23.50;46.20;;;;;;1560162;75;1239;-64
2021/04/17 03:40:25;;;;;;;;;;;23.50;46.20;;;;;;1569330;75;693;-64
2021/04/17 03:42:27;;;;;;;;;;;23.50;46.30;;;;;;1558961;75;753;-66
2021/04/17 03:44:29;;;;;;;;;;;23.60;46.20;;;;;;1562145;75;794;-65
2021/04/17 03:46:31;;;;;;;;;;;23.50;46.20;;;;;;1564045;75;797;-63
2021/04/17 03:48:33;;;;;;;;;;;23.50;46.20;;;;;;1559059;75;1132;-64
2021/04/17 03:50:35;;;;;;;;;;;23.50;46.20;;;;;;1562728;75;724;-63
2021/04/17 03:52:36;;;;;;;;;;;23.50;46.40;;;;;;1560581;75;1916;-63
2021/04/17 03:54:38;;;;;;;;;;;23.50;46.50;;;;;;1559599;75;776;-64
2021/04/17 03:56:40;;;;;;;;;;;23.50;46.50;;;;;;1566803;75;831;-64
2021/04/17 03:58:42;;;;;;;;;;;23.40;46.30;;;;;;1561408;75;1104;-64
2021/04/17 04:00:44;;;;;;;;;;;23.50;46.40;;;;;;1572971;75;769;-65
2021/04/17 04:02:46;;;;;;;;;;;23.50;46.30;;;;;;1558488;75;772;-64
2021/04/17 04:04:48;;;;;;;;;;;23.60;46.30;;;;;;1557566;75;788;-63
2021/04/17 04:06:49;;;;;;;;;;;23.60;46.20;;;;;;1564880;75;687;-64
2021/04/17 04:08:51;;;;;;;;;;;23.60;46.00;;;;;;1560984;75;1080;-64
2021/04/17 04:10:53;;;;;;;;;;;23.60;46.00;;;;;;1553514;75;700;-64
2021/04/17 04:12:55;;;;;;;;;;;23.60;46.10;;;;;;1551486;75;1940;-64
2021/04/17 04:14:57;;;;;;;;;;;23.70;46.30;;;;;;1558356;75;763;-65
2021/04/17 04:16:59;;;;;;;;;;;23.60;46.20;;;;;;1556351;75;1141;-64
2021/04/17 04:19:01;;;;;;;;;;;23.60;46.20;;;;;;1567356;73;214468;-57
2021/04/17 04:21:02;;;;;;;;;;;23.60;46.20;;;;;;1577942;73;727;-59
2021/04/17 04:23:04;;;;;;;;;;;23.70;46.20;;;;;;1590275;73;741;-59
2021/04/17 04:25:07;;;;;;;;;;;23.70;46.20;;;;;;1580232;73;824;-59
2021/04/17 04:27:09;;;;;;;;;;;23.70;46.20;;;;;;1579011;73;734;-59
2021/04/17 04:29:10;;;;;;;;;;;23.70;46.20;;;;;;1574930;73;1140;-58
2021/04/17 04:31:12;;;;;;;;;;;23.70;46.30;;;;;;1577915;73;1930;-59
2021/04/17 04:33:14;;;;;;;;;;;23.70;46.10;;;;;;1574522;74;674;-59
2021/04/17 04:35:16;;;;;;;;;;;23.70;46.20;;;;;;1576487;73;796;-59
2021/04/17 04:37:18;;;;;;;;;;;23.70;46.30;;;;;;1576646;73;721;-59
2021/04/17 04:39:20;;;;;;;;;;;23.70;46.30;;;;;;1576198;73;1188;-57
2021/04/17 04:41:22;;;;;;;;;;;23.60;46.30;;;;;;1578377;73;718;-59
2021/04/17 04:43:24;;;;;;;;;;;23.70;46.50;;;;;;1582593;73;703;-59
2021/04/17 04:45:25;;;;;;;;;;;23.70;46.40;;;;;;1577218;73;734;-58
2021/04/17 04:47:27;;;;;;;;;;;23.70;46.50;;;;;;1585517;73;897;-57
2021/04/17 04:49:29;;;;;;;;;;;23.70;46.40;;;;;;1574925;74;1146;-59
2021/04/17 04:51:31;;;;;;;;;;;23.70;46.30;;;;;;1580610;73;2107;-58
2021/04/17 04:53:33;;;;;;;;;;;23.70;46.30;;;;;;1575771;73;771;-58
2021/04/17 04:55:35;;;;;;;;;;;23.80;46.40;;;;;;1575630;73;731;-57
2021/04/17 04:57:37;;;;;;;;;;;23.80;46.50;;;;;;1574193;73;752;-59
2021/04/17 04:59:39;;;;;;;;;;;23.70;46.40;;;;;;1581537;74;1146;-59
2021/04/17 05:01:40;;;;;;;;;;;23.80;46.30;;;;;;1579388;73;726;-57
2021/04/17 05:03:42;;;;;;;;;;;23.70;46.30;;;;;;1578786;73;768;-59
2021/04/17 05:05:44;;;;;;;;;;;23.80;46.20;;;;;;1579675;73;749;-59
2021/04/17 05:07:46;;;;;;;;;;;23.80;46.20;;;;;;1574268;73;740;-59
2021/04/17 05:09:48;;;;;;;;;;;23.80;46.20;;;;;;1577110;73;1141;-59
2021/04/17 05:11:50;;;;;;;;;;;23.90;45.90;;;;;;1572549;73;1936;-58
2021/04/17 05:13:52;;;;;;;;;;;23.90;45.70;;;;;;1581445;74;797;-59
2021/04/17 05:15:54;;;;;;;;;;;23.90;45.50;;;;;;1580218;74;744;-59
2021/04/17 05:17:56;;;;;;;;;;;23.90;45.60;;;;;;1580122;73;785;-58
2021/04/17 05:19:58;;;;;;;;;;;23.90;45.60;;;;;;1585953;73;1091;-58
2021/04/17 05:21:59;;;;;;;;;;;23.90;45.70;;;;;;1583162;73;728;-59
2021/04/17 05:24:02;;;;;;;;;;;23.90;45.50;;;;;;1575957;73;764;-56
2021/04/17 05:26:04;;;;;;;;;;;23.90;45.40;;;;;;1579652;73;623;-58
2021/04/17 05:28:08;;;;;;;;;;;23.90;45.20;;;;;;1578784;74;729;-58
2021/04/17 05:30:10;;;;;;;;;;;24.00;45.10;;;;;;1583377;73;1101;-58
2021/04/17 05:32:12;;;;;;;;;;;24.00;45.10;;;;;;1579284;73;1930;-58
2021/04/17 05:34:13;;;;;;;;;;;24.00;45.00;;;;;;1577092;73;696;-59
2021/04/17 05:36:15;;;;;;;;;;;24.00;44.90;;;;;;1572998;73;742;-60
2021/04/17 05:38:17;;;;;;;;;;;24.00;44.80;;;;;;1580584;73;747;-58
2021/04/17 05:40:19;;;;;;;;;;;24.00;44.70;;;;;;1578878;74;1137;-58
2021/04/17 05:42:21;;;;;;;;;;;24.00;44.70;;;;;;1582403;73;714;-58
2021/04/17 05:44:23;;;;;;;;;;;24.00;44.60;;;;;;1587366;74;769;-59
2021/04/17 05:46:25;;;;;;;;;;;24.00;44.40;;;;;;1578697;73;750;-59
2021/04/17 05:48:27;;;;;;;;;;;24.00;44.40;;;;;;1582617;73;780;-58
2021/04/17 05:50:29;;;;;;;;;;;23.90;44.50;;;;;;1577123;73;1116;-58
2021/04/17 05:52:31;;;;;;;;;;;24.00;44.40;;;;;;1583366;73;1968;-58
2021/04/17 05:54:32;;;;;;;;;;;24.00;44.30;;;;;;1575390;73;745;-59
2021/04/17 05:56:34;;;;;;;;;;;24.00;44.30;;;;;;1581864;73;943;-59
2021/04/17 05:58:36;;;;;;;;;;;23.90;44.30;;;;;;1574144;73;1203;-59
2021/04/17 06:00:38;;;;;;;;;;;24.00;44.20;;;;;;1580404;73;721;-59
2021/04/17 06:02:40;;;;;;;;;;;23.90;44.30;;;;;;1587054;74;774;-59
2021/04/17 06:04:42;;;;;;;;;;;23.90;44.30;;;;;;1582741;73;808;-59
2021/04/17 06:06:44;;;;;;;;;;;23.90;44.60;;;;;;1578041;74;794;-59
2021/04/17 06:08:45;;;;;;;;;;;23.90;44.60;;;;;;1580298;74;1177;-58
2021/04/17 06:10:47;;;;;;;;;;;23.90;44.50;;;;;;1578645;73;757;-60
2021/04/17 06:12:49;;;;;;;;;;;23.90;44.50;;;;;;1579735;74;1937;-58
2021/04/17 06:14:51;;;;;;;;;;;24.00;44.40;;;;;;1582405;73;752;-59
2021/04/17 06:16:53;;;;;;;;;;;23.90;44.40;;;;;;1574645;74;822;-58
2021/04/17 06:18:55;;;;;;;;;;;23.90;44.50;;;;;;1582884;73;1146;-59
2021/04/17 06:20:57;;;;;;;;;;;23.90;44.50;;;;;;1586069;73;694;-58
2021/04/17 06:22:59;;;;;;;;;;;23.90;44.50;;;;;;1576183;73;723;-58
2021/04/17 06:25:01;;;;;;;;;;;23.90;44.50;;;;;;1586155;73;763;-58
2021/04/17 06:27:03;;;;;;;;;;;24.00;44.40;;;;;;1586244;73;799;-58
2021/04/17 06:29:05;;;;;;;;;;;24.00;44.30;;;;;;1579179;74;1149;-59
2021/04/17 06:31:07;;;;;;;;;;;24.00;44.30;;;;;;1583082;73;825;-58
2021/04/17 06:33:09;;;;;;;;;;;24.00;44.20;;;;;;1581663;73;2077;-58
2021/04/17 06:35:12;;;;;;;;;;;24.00;44.20;;;;;;1580547;73;746;-58
2021/04/17 06:37:14;;;;;;;;;;;24.00;44.20;;;;;;1584548;73;744;-57
2021/04/17 06:39:16;;;;;;;;;;;24.00;44.10;;;;;;1580715;73;1197;-58
2021/04/17 06:41:19;;;;;;;;;;;23.90;44.10;;;;;;1584025;73;834;-59
2021/04/17 06:43:23;;;;;;;;;;;24.00;44.20;;;;;;1576441;74;808;-59
2021/04/17 06:45:25;;;;;;;;;;;24.00;44.30;;;;;;1585738;73;785;-60
2021/04/17 06:47:27;;;;;;;;;;;24.00;44.70;;;;;;1575738;73;683;-58
2021/04/17 06:49:29;;;;;;;;;;;23.80;44.40;;;;;;1588473;74;1144;-59
2021/04/17 06:51:31;;;;;;;;;;;23.80;44.40;;;;;;1588007;73;712;-58
2021/04/17 06:53:34;;;;;;;;;;;23.90;44.00;;;;;;1591253;74;1934;-59
2021/04/17 06:55:36;;;;;;;;;;;24.00;43.70;;;;;;1584358;73;833;-59
2021/04/17 06:57:39;;;;;;;;;;;24.00;43.40;;;;;;1574480;73;823;-58
2021/04/17 06:59:41;;;;;;;;;;;24.00;43.20;;;;;;1579764;73;1150;-58
2021/04/17 07:01:43;;;;;;;;;;;24.00;43.00;;;;;;1580027;73;810;-59
2021/04/17 07:03:46;;;;;;;;;;;24.00;42.80;;;;;;1582777;74;681;-59
2021/04/17 07:05:48;;;;;;;;;;;24.00;42.80;;;;;;1584961;73;835;-58
2021/04/17 07:07:50;;;;;;;;;;;23.90;42.70;;;;;;1576386;73;727;-58
2021/04/17 07:09:52;;;;;;;;;;;23.90;42.60;;;;;;1577828;73;1139;-58
2021/04/17 07:11:54;;;;;;;;;;;23.90;42.50;;;;;;1578889;73;789;-58
2021/04/17 07:14:06;;;;;;;;;;;23.90;42.30;;;;;;1589766;73;1938;-57
2021/04/17 07:16:08;;;;;;;;;;;23.90;42.20;;;;;;1586805;73;819;-56
2021/04/17 07:18:21;;;;;;;;;;;23.90;42.20;;;;;;1582526;73;680;-58
2021/04/17 07:20:23;;;;;;;;;;;23.90;42.20;;;;;;1572109;73;1190;-59
2021/04/17 07:22:25;;;;;;;;;;;23.90;42.20;;;;;;1556305;74;1184;-58
2021/04/17 07:24:27;;;;;;;;;;;23.90;42.10;;;;;;1524808;76;742;-58
2021/04/17 07:26:30;;;;;;;;;;;23.90;42.00;;;;;;1549176;76;761;-57
2021/04/17 07:28:32;;;;;;;;;;;23.90;41.90;;;;;;1543008;76;1153;-59
2021/04/17 07:30:34;;;;;;;;;;;23.90;41.90;;;;;;1527476;77;750;-58
2021/04/17 07:32:36;;;;;;;;;;;23.90;41.80;;;;;;1521950;77;1938;-57
2021/04/17 07:34:38;;;;;;;;;;;23.90;41.80;;;;;;1536147;75;858;-58
2021/04/17 07:36:51;;;;;;;;;;;23.90;41.80;;;;;;1527188;76;785;-58
2021/04/17 07:38:53;;;;;;;;;;;23.80;41.60;;;;;;1546938;76;1137;-58
2021/04/17 07:41:02;;;;;;;;;;;23.90;41.70;;;;;;1552482;76;737;-58
2021/04/17 07:43:04;;;;;;;;;;;23.80;41.60;;;;;;1554812;76;781;-58
2021/04/17 07:45:07;;;;;;;;;;;23.80;41.60;;;;;;1556977;76;781;-59
2021/04/17 07:47:09;;;;;;;;;;;23.70;41.60;;;;;;1549823;76;1107;-58
2021/04/17 07:49:12;;;;;;;;;;;23.80;41.60;;;;;;1542566;76;1186;-59
2021/04/17 07:51:14;;;;;;;;;;;23.70;41.70;;;;;;1547807;76;729;-58
2021/04/17 07:53:25;;;;;;;;;;;23.80;41.60;;;;;;1547226;76;1925;-58
2021/04/17 07:55:32;;;;;;;;;;;23.80;41.60;;;;;;1539937;76;773;-58
2021/04/17 07:57:38;;;;;;;;;;;23.80;41.60;;;;;;1534149;76;651;-58
2021/04/17 07:59:42;;;;;;;;;;;23.70;41.70;;;;;;1546493;76;1248;-58
2021/04/17 08:01:44;;;;;;;;;;;23.80;41.60;;;;;;1550070;76;1069;-58
2021/04/17 08:03:46;;;;;;;;;;;23.80;41.60;;;;;;1535718;75;754;-58
2021/04/17 08:05:48;;;;;;;;;;;23.80;41.50;;;;;;1534674;75;731;-56
2021/04/17 08:07:50;;;;;;;;;;;23.80;41.50;;;;;;1535583;75;730;-58
2021/04/17 08:09:52;;;;;;;;;;;23.80;41.50;;;;;;1533950;76;1147;-58
2021/04/17 08:11:54;;;;;;;;;;;23.70;41.40;;;;;;1537208;76;738;-57
2021/04/17 08:13:56;;;;;;;;;;;23.70;41.40;;;;;;1545296;76;1909;-59
2021/04/17 08:15:58;;;;;;;;;;;23.80;41.50;;;;;;1541983;76;718;-57
2021/04/17 08:18:00;;;;;;;;;;;23.80;41.40;;;;;;1536437;76;833;-59
2021/04/17 08:20:02;;;;;;;;;;;23.70;41.40;;;;;;1517006;76;1158;-58
2021/04/17 08:22:04;;;;;;;;;;;23.80;41.40;;;;;;1575791;73;874;-57
2021/04/17 08:24:06;;;;;;;;;;;23.70;41.30;;;;;;1575641;73;683;-56
2021/04/17 08:26:08;;;;;;;;;;;23.70;41.30;;;;;;1590533;73;686;-57
2021/04/17 08:28:20;;;;;;;;;;;23.80;41.40;;;;;;1582017;73;708;-58
2021/04/17 08:30:23;;;;;;;;;;;23.70;41.30;;;;;;1580749;73;1111;-58
2021/04/17 08:32:29;;;;;;;;;;;23.70;41.40;;;;;;1583104;73;748;-58
2021/04/17 08:34:31;;;;;;;;;;;23.70;41.40;;;;;;1574841;73;1898;-58
2021/04/17 08:36:33;;;;;;;;;;;23.70;41.40;;;;;;1571698;73;777;-58
2021/04/17 08:38:35;;;;;;;;;;;23.70;41.40;;;;;;1582809;73;1148;-59
2021/04/17 08:40:39;;;;;;;;;;;23.70;41.30;;;;;;1593560;73;834;-58
2021/04/17 08:42:44;;;;;;;;;;;23.70;41.30;;;;;;1574131;73;806;-57
2021/04/17 08:44:46;;;;;;;;;;;23.70;41.30;;;;;;1579750;74;1448;-58
2021/04/17 08:46:48;;;;;;;;;;;23.70;41.30;;;;;;1587570;73;775;-58
2021/04/17 08:48:54;;;;;;;;;;;23.70;41.30;;;;;;1584727;73;1114;-58
2021/04/17 08:50:56;;;;;;;;;;;23.70;41.40;;;;;;1575806;73;745;-58
2021/04/17 08:52:58;;;;;;;;;;;23.60;41.30;;;;;;1581943;73;1949;-58
2021/04/17 08:55:02;;;;;;;;;;;23.60;41.30;;;;;;1588527;73;786;-58
2021/04/17 08:57:13;;;;;;;;;;;23.60;41.30;;;;;;1581487;73;779;-56
2021/04/17 08:59:20;;;;;;;;;;;23.60;41.30;;;;;;1577951;73;1148;-58
2021/04/17 09:01:22;;;;;;;;;;;23.60;41.20;;;;;;1570851;73;1791;-58
2021/04/17 09:03:35;;;;;;;;;;;23.60;41.20;;;;;;1587061;73;722;-58
2021/04/17 09:05:44;;;;;;;;;;;23.60;41.20;;;;;;1571877;73;787;-59
2021/04/17 09:07:46;;;;;;;;;;;23.60;41.30;;;;;;1579575;73;727;-58
2021/04/17 09:09:48;;;;;;;;;;;23.50;41.30;;;;;;1577445;73;1152;-58
2021/04/17 09:11:50;;;;;;;;;;;23.50;41.40;;;;;;1576657;73;790;-59
2021/04/17 09:13:52;;;;;;;;;;;23.50;41.50;;;;;;1583884;73;1930;-59
2021/04/17 09:16:01;;;;;;;;;;;23.50;41.70;;;;;;1578065;73;775;-59
2021/04/17 09:18:03;;;;;;;;;;;23.40;41.70;;;;;;1583466;73;782;-59
2021/04/17 09:20:06;;;;;;;;;;;23.50;41.60;;;;;;1582008;73;1128;-58
2021/04/17 09:22:30;;;;;;;;;;;23.50;41.50;;;;;;1583560;73;907;-59
2021/04/17 09:24:31;;;;;;;;;;;23.50;41.50;;;;;;1571899;73;1633;-58
2021/04/17 09:26:34;;;;;;;;;;;23.60;41.90;;;;;;1585508;73;789;-58
2021/04/17 09:28:38;;;;;;;;;;;23.50;42.10;;;;;;1577943;74;1144;-58
2021/04/17 09:30:40;;;;;;;;;;;23.50;42.40;;;;;;1580288;73;823;-58
2021/04/17 09:32:46;;;;;;;;;;;23.50;42.60;;;;;;1575940;73;739;-59
2021/04/17 09:34:48;;;;;;;;;;;23.60;42.80;;;;;;1580781;73;1934;-57
2021/04/17 09:36:50;;;;;;;;;;;23.60;43.00;;;;;;1581276;73;809;-58
2021/04/17 09:38:52;;;;;;;;;;;23.50;43.30;;;;;;1574763;74;1148;-60
2021/04/17 09:40:54;;;;;;;;;;;23.60;43.30;;;;;;1585173;73;827;-57
2021/04/17 09:42:56;;;;;;;;;;;23.50;43.40;;;;;;1572552;73;734;-59
2021/04/17 09:44:58;;;;;;;;;;;23.50;43.60;;;;;;1580152;73;709;-58
2021/04/17 09:47:08;;;;;;;;;;;23.50;43.90;;;;;;1572109;73;743;-58
2021/04/17 09:49:10;;;;;;;;;;;23.50;43.60;;;;;;1569905;73;1849;-58
2021/04/17 09:51:19;;;;;;;;;;;23.50;43.50;;;;;;1571026;73;678;-58
2021/04/17 09:53:23;;;;;;;;;;;23.50;43.50;;;;;;1582243;73;1955;-58
2021/04/17 09:55:25;;;;;;;;;;;23.40;43.40;;;;;;1573436;73;766;-59
2021/04/17 09:57:28;;;;;;;;;;;23.50;43.80;;;;;;1573321;73;776;-58
2021/04/17 09:59:30;;;;;;;;;;;23.40;44.00;;;;;;1580399;73;1804;-58
2021/04/17 10:01:32;;;;;;;;;;;23.40;44.20;;;;;;1580371;73;782;-57
2021/04/17 10:03:35;;;;;;;;;;;23.40;44.40;;;;;;1572358;73;713;-58
2021/04/17 10:05:37;;;;;;;;;;;23.40;44.50;;;;;;1572733;73;688;-58
2021/04/17 10:07:49;;;;;;;;;;;23.40;44.70;;;;;;1579257;73;711;-57
2021/04/17 10:09:59;;;;;;;;;;;23.40;45.00;;;;;;1576580;73;1522;-56
2021/04/17 10:12:05;;;;;;;;;;;23.40;45.00;;;;;;1579574;73;725;-58
2021/04/17 10:14:08;;;;;;;;;;;23.30;45.30;;;;;;1585550;73;1906;-58
2021/04/17 10:16:10;;;;;;;;;;;23.30;45.40;;;;;;1579782;73;769;-58
2021/04/17 10:18:12;;;;;;;;;;;23.40;45.60;;;;;;1569406;73;219106;-65
2021/04/17 10:20:15;;;;;;;;;;;23.30;45.70;;;;;;1563733;74;727;-65
2021/04/17 10:22:20;;;;;;;;;;;23.30;45.70;;;;;;1542016;75;728;-64
2021/04/17 10:24:34;;;;;;;;;;;23.40;45.90;;;;;;1585184;73;937;-64
2021/04/17 10:26:37;;;;;;;;;;;23.20;45.80;;;;;;1592841;73;742;-64
2021/04/17 10:28:39;;;;;;;;;;;23.20;46.10;;;;;;1581695;73;1853;-65
2021/04/17 10:30:42;;;;;;;;;;;23.30;46.20;;;;;;1568152;74;803;-65
2021/04/17 10:32:44;;;;;;;;;;;23.30;46.30;;;;;;1568749;74;731;-65
2021/04/17 10:34:46;;;;;;;;;;;23.30;46.40;;;;;;1564495;74;1930;-64
2021/04/17 10:36:50;;;;;;;;;;;23.20;46.30;;;;;;1559072;74;719;-62
2021/04/17 10:38:52;;;;;;;;;;;23.20;46.50;;;;;;1567634;74;1866;-64
2021/04/17 10:40:54;;;;;;;;;;;23.20;46.60;;;;;;1566541;74;697;-65
2021/04/17 10:42:58;;;;;;;;;;;23.20;46.70;;;;;;1567610;74;730;-65
2021/04/17 10:45:00;;;;;;;;;;;23.20;46.80;;;;;;1564154;74;1058;-66
2021/04/17 10:47:03;;;;;;;;;;;23.10;46.90;;;;;;1567438;74;805;-66
2021/04/17 10:49:05;;;;;;;;;;;23.10;47.10;;;;;;1569745;74;1175;-66
2021/04/17 10:51:08;;;;;;;;;;;23.10;47.10;;;;;;1567285;74;689;-64
2021/04/17 10:53:10;;;;;;;;;;;23.20;47.30;;;;;;1562710;74;739;-64
2021/04/17 10:55:12;;;;;;;;;;;23.10;47.30;;;;;;1570113;74;1950;-65
2021/04/17 10:57:14;;;;;;;;;;;23.10;47.40;;;;;;1567028;74;719;-64
2021/04/17 10:59:16;;;;;;;;;;;23.10;47.50;;;;;;1566919;74;1139;-62
2021/04/17 11:01:24;;;;;;;;;;;23.00;47.50;;;;;;1566782;74;764;-64
2021/04/17 11:03:27;;;;;;;;;;;23.00;47.40;;;;;;1566631;74;766;-64
2021/04/17 11:05:31;;;;;;;;;;;23.00;47.60;;;;;;1562878;74;765;-65
2021/04/17 11:07:35;;;;;;;;;;;23.00;47.70;;;;;;1556222;74;978;-65
2021/04/17 11:09:38;;;;;;;;;;;23.00;47.70;;;;;;1558308;74;1763;-65
2021/04/17 11:11:55;;;;;;;;;;;23.00;47.70;;;;;;1555591;74;2079;-65
2021/04/17 11:13:58;;;;;;;;;;;23.00;47.80;;;;;;1560755;74;1930;-66
2021/04/17 11:16:00;;;;;;;;;;;23.00;48.00;;;;;;1566740;74;757;-65
2021/04/17 11:18:15;;;;;;;;;;;22.90;48.00;;;;;;1557457;74;1141;-65
2021/04/17 11:20:19;;;;;;;;;;;23.00;47.90;;;;;;1564514;74;799;-63
2021/04/17 11:22:25;;;;;;;;;;;23.00;47.90;;;;;;1558488;74;1504;-65
2021/04/17 11:24:27;;;;;;;;;;;23.00;48.00;;;;;;1563816;74;778;-65
2021/04/17 11:26:29;;;;;;;;;;;23.00;48.00;;;;;;1564993;74;737;-65
2021/04/17 11:28:31;;;;;;;;;;;23.00;48.10;;;;;;1565313;74;1142;-65
2021/04/17 11:30:33;;;;;;;;;;;23.00;48.10;;;;;;1567830;74;735;-64
2021/04/17 11:32:36;;;;;;;;;;;23.00;48.20;;;;;;1563356;74;652;-65
2021/04/17 11:34:39;;;;;;;;;;;23.00;48.30;;;;;;1565847;74;1917;-65
2021/04/17 11:36:41;;;;;;;;;;;22.90;48.30;;;;;;1563552;74;1775;-63
2021/04/17 11:38:43;;;;;;;;;;;23.00;48.30;;;;;;1566073;74;1179;-66
2021/04/17 11:40:45;;;;;;;;;;;23.00;48.40;;;;;;1565906;74;689;-67
2021/04/17 11:42:46;;;;;;;;;;;22.90;48.40;;;;;;1570348;74;796;-65
2021/04/17 11:44:48;;;;;;;;;;;22.90;48.40;;;;;;1568552;74;741;-65
2021/04/17 11:46:50;;;;;;;;;;;22.90;48.60;;;;;;1567661;74;719;-64
2021/04/17 11:48:52;;;;;;;;;;;22.90;48.60;;;;;;1566679;74;1122;-65
2021/04/17 11:50:54;;;;;;;;;;;22.90;48.60;;;;;;1536203;76;816;-65
2021/04/17 11:52:56;;;;;;;;;;;22.90;48.50;;;;;;1566516;74;686;-65
2021/04/17 11:54:59;;;;;;;;;;;22.90;48.60;;;;;;1573972;74;1931;-65
2021/04/17 11:57:01;;;;;;;;;;;23.00;48.60;;;;;;1572447;74;825;-65
2021/04/17 11:59:03;;;;;;;;;;;22.90;48.60;;;;;;1562811;74;1136;-65
2021/04/17 12:01:05;;;;;;;;;;;22.90;48.60;;;;;;1567585;74;749;-65
2021/04/17 12:03:07;;;;;;;;;;;22.90;48.30;;;;;;1567707;74;794;-65
2021/04/17 12:05:10;;;;;;;;;;;22.90;48.60;;;;;;1564324;74;738;-65
2021/04/17 12:07:11;;;;;;;;;;;22.90;48.50;;;;;;1558294;74;710;-63
2021/04/17 12:09:13;;;;;;;;;;;22.90;48.60;;;;;;1568961;74;1135;-65
2021/04/17 12:11:15;;;;;;;;;;;22.90;48.70;;;;;;1569898;74;727;-66
2021/04/17 12:13:17;;;;;;;;;;;22.90;48.80;;;;;;1559280;74;978;-63